Terminal Aerodrome Forecast
Issued by NWS Charleston, WV

Current Version | Previous Version | Text Only | Print | Product List | Glossary Off
Versions: 1 2 3 4 5 6 7 8 9 10 11 12 13 14 15 16 17 18 19 20 21 22 23 24 25 26

000
FTUS41 KRLX 190800 AAB
TAFHTS
TAF AMD
KHTS 190830Z 1909/2006 00000KT 1/2SM FG VV001
     FM191000 00000KT 2SM BR BKN002
     FM191100 00000KT 4SM BR SCT001 BKN015
     FM191300 28004KT 6SM BR SCT015 BKN025
     FM191400 28004KT P6SM BKN025
     FM191700 29006KT P6SM SCT040=

USA.gov is the U.S. government's official web portal to all federal, state and local government web resources and services.